sensor_id;sensor_type;location;lat;lon;timestamp;P1;durP1;ratioP1;P2;durP2;ratioP2
72087;SDS011;59961;50.232;8.616;2024-01-11T00:01:08;16.57;;;7.50;;
72087;SDS011;59961;50.232;8.616;2024-01-11T00:03:33;20.73;;;8.88;;
72087;SDS011;59961;50.232;8.616;2024-01-11T00:05:58;21.35;;;8.50;;
72087;SDS011;59961;50.232;8.616;2024-01-11T00:08:25;20.80;;;8.55;;
72087;SDS011;59961;50.232;8.616;2024-01-11T00:10:50;20.27;;;9.05;;
72087;SDS011;59961;50.232;8.616;2024-01-11T00:13:15;22.30;;;8.57;;
72087;SDS011;59961;50.232;8.616;2024-01-11T00:15:41;19.40;;;8.80;;
72087;SDS011;59961;50.232;8.616;2024-01-11T00:18:06;26.83;;;10.55;;
72087;SDS011;59961;50.232;8.616;2024-01-11T00:20:31;19.10;;;8.47;;
72087;SDS011;59961;50.232;8.616;2024-01-11T00:22:56;20.20;;;8.15;;
72087;SDS011;59961;50.232;8.616;2024-01-11T00:25:21;32.13;;;12.23;;
72087;SDS011;59961;50.232;8.616;2024-01-11T00:27:47;17.70;;;7.33;;
72087;SDS011;59961;50.232;8.616;2024-01-11T00:30:12;18.48;;;8.20;;
72087;SDS011;59961;50.232;8.616;2024-01-11T00:32:37;17.57;;;8.37;;
72087;SDS011;59961;50.232;8.616;2024-01-11T00:35:02;18.37;;;8.73;;
72087;SDS011;59961;50.232;8.616;2024-01-11T00:37:28;24.60;;;10.43;;
72087;SDS011;59961;50.232;8.616;2024-01-11T00:39:53;18.33;;;8.20;;
72087;SDS011;59961;50.232;8.616;2024-01-11T00:42:18;18.05;;;7.97;;
72087;SDS011;59961;50.232;8.616;2024-01-11T00:44:44;18.70;;;8.10;;
72087;SDS011;59961;50.232;8.616;2024-01-11T00:47:10;17.57;;;6.93;;
72087;SDS011;59961;50.232;8.616;2024-01-11T00:49:35;17.98;;;7.57;;
72087;SDS011;59961;50.232;8.616;2024-01-11T00:52:01;15.77;;;7.50;;
72087;SDS011;59961;50.232;8.616;2024-01-11T00:54:26;24.33;;;10.13;;
72087;SDS011;59961;50.232;8.616;2024-01-11T00:56:51;33.83;;;14.07;;
72087;SDS011;59961;50.232;8.616;2024-01-11T00:59:16;19.42;;;8.43;;
72087;SDS011;59961;50.232;8.616;2024-01-11T01:01:46;16.83;;;7.17;;
72087;SDS011;59961;50.232;8.616;2024-01-11T01:04:11;17.23;;;7.20;;
72087;SDS011;59961;50.232;8.616;2024-01-11T01:06:37;18.43;;;8.17;;
72087;SDS011;59961;50.232;8.616;2024-01-11T01:09:02;17.63;;;8.25;;
72087;SDS011;59961;50.232;8.616;2024-01-11T01:11:28;19.08;;;7.63;;
72087;SDS011;59961;50.232;8.616;2024-01-11T01:13:53;18.38;;;8.00;;
72087;SDS011;59961;50.232;8.616;2024-01-11T01:16:18;23.35;;;8.80;;
72087;SDS011;59961;50.232;8.616;2024-01-11T01:18:45;30.63;;;13.18;;
72087;SDS011;59961;50.232;8.616;2024-01-11T01:21:10;15.63;;;6.63;;
72087;SDS011;59961;50.232;8.616;2024-01-11T01:23:35;17.55;;;7.45;;
72087;SDS011;59961;50.232;8.616;2024-01-11T01:26:00;16.30;;;7.90;;
72087;SDS011;59961;50.232;8.616;2024-01-11T01:28:25;17.55;;;7.10;;
72087;SDS011;59961;50.232;8.616;2024-01-11T01:30:50;17.33;;;8.33;;
72087;SDS011;59961;50.232;8.616;2024-01-11T01:33:15;49.15;;;16.88;;
72087;SDS011;59961;50.232;8.616;2024-01-11T01:35:41;19.00;;;8.73;;
72087;SDS011;59961;50.232;8.616;2024-01-11T01:38:06;19.63;;;8.00;;
72087;SDS011;59961;50.232;8.616;2024-01-11T01:40:31;19.85;;;8.25;;
72087;SDS011;59961;50.232;8.616;2024-01-11T01:42:59;18.10;;;8.05;;
72087;SDS011;59961;50.232;8.616;2024-01-11T01:45:24;16.23;;;7.30;;
72087;SDS011;59961;50.232;8.616;2024-01-11T01:47:50;20.17;;;8.37;;
72087;SDS011;59961;50.232;8.616;2024-01-11T01:50:15;41.27;;;16.53;;
72087;SDS011;59961;50.232;8.616;2024-01-11T01:52:41;22.77;;;8.50;;
72087;SDS011;59961;50.232;8.616;2024-01-11T01:55:07;16.73;;;7.65;;
72087;SDS011;59961;50.232;8.616;2024-01-11T01:57:34;20.75;;;8.50;;
72087;SDS011;59961;50.232;8.616;2024-01-11T01:59:59;21.00;;;8.67;;
72087;SDS011;59961;50.232;8.616;2024-01-11T02:02:25;16.40;;;7.60;;
72087;SDS011;59961;50.232;8.616;2024-01-11T02:04:51;20.42;;;7.75;;
72087;SDS011;59961;50.232;8.616;2024-01-11T02:07:16;19.13;;;7.60;;
72087;SDS011;59961;50.232;8.616;2024-01-11T02:09:43;19.67;;;8.15;;
72087;SDS011;59961;50.232;8.616;2024-01-11T02:12:08;19.23;;;7.80;;
72087;SDS011;59961;50.232;8.616;2024-01-11T02:14:36;17.47;;;7.60;;
72087;SDS011;59961;50.232;8.616;2024-01-11T02:17:02;16.70;;;8.35;;
72087;SDS011;59961;50.232;8.616;2024-01-11T02:19:28;22.17;;;8.87;;
72087;SDS011;59961;50.232;8.616;2024-01-11T02:21:53;20.13;;;8.37;;
72087;SDS011;59961;50.232;8.616;2024-01-11T02:24:19;30.45;;;11.45;;
72087;SDS011;59961;50.232;8.616;2024-01-11T02:26:57;19.98;;;8.90;;
72087;SDS011;59961;50.232;8.616;2024-01-11T02:29:22;17.13;;;7.20;;
72087;SDS011;59961;50.232;8.616;2024-01-11T02:31:48;15.33;;;7.33;;
72087;SDS011;59961;50.232;8.616;2024-01-11T02:34:13;19.73;;;8.43;;
72087;SDS011;59961;50.232;8.616;2024-01-11T02:36:38;17.83;;;7.90;;
72087;SDS011;59961;50.232;8.616;2024-01-11T02:39:03;21.80;;;8.37;;
72087;SDS011;59961;50.232;8.616;2024-01-11T02:41:30;21.80;;;8.10;;
72087;SDS011;59961;50.232;8.616;2024-01-11T02:43:55;18.42;;;8.82;;
72087;SDS011;59961;50.232;8.616;2024-01-11T02:46:21;18.50;;;8.20;;
72087;SDS011;59961;50.232;8.616;2024-01-11T02:48:46;17.70;;;8.13;;
72087;SDS011;59961;50.232;8.616;2024-01-11T02:51:12;18.23;;;8.07;;
72087;SDS011;59961;50.232;8.616;2024-01-11T02:53:37;18.27;;;7.83;;
72087;SDS011;59961;50.232;8.616;2024-01-11T02:56:02;20.40;;;8.45;;
72087;SDS011;59961;50.232;8.616;2024-01-11T02:58:29;21.40;;;7.93;;
72087;SDS011;59961;50.232;8.616;2024-01-11T03:00:54;19.30;;;7.83;;
72087;SDS011;59961;50.232;8.616;2024-01-11T03:03:19;16.85;;;7.55;;
72087;SDS011;59961;50.232;8.616;2024-01-11T03:05:44;19.87;;;8.20;;
72087;SDS011;59961;50.232;8.616;2024-01-11T03:08:10;18.27;;;7.77;;
72087;SDS011;59961;50.232;8.616;2024-01-11T03:10:37;20.85;;;8.68;;
72087;SDS011;59961;50.232;8.616;2024-01-11T03:13:04;15.63;;;7.63;;
72087;SDS011;59961;50.232;8.616;2024-01-11T03:15:33;17.27;;;7.53;;
72087;SDS011;59961;50.232;8.616;2024-01-11T03:17:58;20.13;;;7.43;;
72087;SDS011;59961;50.232;8.616;2024-01-11T03:20:23;19.67;;;8.07;;
72087;SDS011;59961;50.232;8.616;2024-01-11T03:22:50;37.13;;;14.17;;
72087;SDS011;59961;50.232;8.616;2024-01-11T03:25:16;16.27;;;7.35;;
72087;SDS011;59961;50.232;8.616;2024-01-11T03:27:41;22.20;;;7.43;;
72087;SDS011;59961;50.232;8.616;2024-01-11T03:30:07;17.17;;;7.60;;
72087;SDS011;59961;50.232;8.616;2024-01-11T03:32:32;14.52;;;7.10;;
72087;SDS011;59961;50.232;8.616;2024-01-11T03:34:57;16.77;;;7.18;;
72087;SDS011;59961;50.232;8.616;2024-01-11T03:37:22;17.40;;;7.80;;
72087;SDS011;59961;50.232;8.616;2024-01-11T03:39:47;24.13;;;10.20;;
72087;SDS011;59961;50.232;8.616;2024-01-11T03:42:13;18.73;;;8.87;;
72087;SDS011;59961;50.232;8.616;2024-01-11T03:44:38;15.77;;;6.70;;
72087;SDS011;59961;50.232;8.616;2024-01-11T03:47:03;15.98;;;7.00;;
72087;SDS011;59961;50.232;8.616;2024-01-11T03:49:28;15.47;;;7.30;;
72087;SDS011;59961;50.232;8.616;2024-01-11T03:51:53;17.83;;;7.63;;
72087;SDS011;59961;50.232;8.616;2024-01-11T03:54:21;15.27;;;7.13;;
72087;SDS011;59961;50.232;8.616;2024-01-11T03:56:47;15.73;;;7.80;;
72087;SDS011;59961;50.232;8.616;2024-01-11T03:59:13;17.80;;;7.53;;
72087;SDS011;59961;50.232;8.616;2024-01-11T04:01:40;17.92;;;7.82;;
72087;SDS011;59961;50.232;8.616;2024-01-11T04:04:05;17.60;;;6.70;;
72087;SDS011;59961;50.232;8.616;2024-01-11T04:06:30;17.00;;;7.23;;
72087;SDS011;59961;50.232;8.616;2024-01-11T04:08:55;14.95;;;7.30;;
72087;SDS011;59961;50.232;8.616;2024-01-11T04:11:21;14.83;;;7.27;;
72087;SDS011;59961;50.232;8.616;2024-01-11T04:13:47;16.25;;;7.63;;
72087;SDS011;59961;50.232;8.616;2024-01-11T04:16:12;16.30;;;7.03;;
72087;SDS011;59961;50.232;8.616;2024-01-11T04:18:37;19.35;;;7.70;;
72087;SDS011;59961;50.232;8.616;2024-01-11T04:21:03;16.73;;;7.43;;
72087;SDS011;59961;50.232;8.616;2024-01-11T04:23:28;18.23;;;7.90;;
72087;SDS011;59961;50.232;8.616;2024-01-11T04:25:54;14.18;;;6.70;;
72087;SDS011;59961;50.232;8.616;2024-01-11T04:28:19;15.68;;;6.78;;
72087;SDS011;59961;50.232;8.616;2024-01-11T04:30:45;16.83;;;7.90;;
72087;SDS011;59961;50.232;8.616;2024-01-11T04:33:10;15.40;;;6.77;;
72087;SDS011;59961;50.232;8.616;2024-01-11T04:35:36;16.77;;;6.97;;
72087;SDS011;59961;50.232;8.616;2024-01-11T04:38:01;15.38;;;6.65;;
72087;SDS011;59961;50.232;8.616;2024-01-11T04:40:26;16.13;;;7.10;;
72087;SDS011;59961;50.232;8.616;2024-01-11T04:42:51;15.57;;;7.23;;
72087;SDS011;59961;50.232;8.616;2024-01-11T04:45:16;14.00;;;6.37;;
72087;SDS011;59961;50.232;8.616;2024-01-11T04:47:43;13.02;;;6.45;;
72087;SDS011;59961;50.232;8.616;2024-01-11T04:50:09;14.15;;;6.95;;
72087;SDS011;59961;50.232;8.616;2024-01-11T04:52:34;15.40;;;6.43;;
72087;SDS011;59961;50.232;8.616;2024-01-11T04:54:59;14.27;;;5.93;;
72087;SDS011;59961;50.232;8.616;2024-01-11T04:57:24;13.80;;;6.10;;
72087;SDS011;59961;50.232;8.616;2024-01-11T04:59:49;28.20;;;14.00;;
72087;SDS011;59961;50.232;8.616;2024-01-11T05:02:14;29.63;;;13.97;;
72087;SDS011;59961;50.232;8.616;2024-01-11T05:04:40;31.90;;;14.37;;
72087;SDS011;59961;50.232;8.616;2024-01-11T05:07:05;32.93;;;13.27;;
72087;SDS011;59961;50.232;8.616;2024-01-11T05:09:31;33.50;;;15.73;;
72087;SDS011;59961;50.232;8.616;2024-01-11T05:11:56;14.33;;;6.37;;
72087;SDS011;59961;50.232;8.616;2024-01-11T05:14:21;36.50;;;14.68;;
72087;SDS011;59961;50.232;8.616;2024-01-11T05:16:46;37.57;;;15.70;;
72087;SDS011;59961;50.232;8.616;2024-01-11T05:19:12;25.77;;;11.73;;
72087;SDS011;59961;50.232;8.616;2024-01-11T05:21:37;15.73;;;5.93;;
72087;SDS011;59961;50.232;8.616;2024-01-11T05:24:02;13.50;;;5.50;;
72087;SDS011;59961;50.232;8.616;2024-01-11T05:26:27;15.90;;;6.03;;
72087;SDS011;59961;50.232;8.616;2024-01-11T05:28:53;20.20;;;8.80;;
72087;SDS011;59961;50.232;8.616;2024-01-11T05:31:18;49.33;;;18.20;;
72087;SDS011;59961;50.232;8.616;2024-01-11T05:33:44;49.30;;;19.90;;
72087;SDS011;59961;50.232;8.616;2024-01-11T05:36:09;45.93;;;18.63;;
72087;SDS011;59961;50.232;8.616;2024-01-11T05:38:34;43.00;;;17.70;;
72087;SDS011;59961;50.232;8.616;2024-01-11T05:41:00;45.70;;;17.13;;
72087;SDS011;59961;50.232;8.616;2024-01-11T05:43:25;38.85;;;16.63;;
72087;SDS011;59961;50.232;8.616;2024-01-11T05:45:51;40.50;;;15.53;;
72087;SDS011;59961;50.232;8.616;2024-01-11T05:48:16;37.73;;;15.67;;
72087;SDS011;59961;50.232;8.616;2024-01-11T05:50:42;41.73;;;14.73;;
72087;SDS011;59961;50.232;8.616;2024-01-11T05:53:07;35.27;;;13.50;;
72087;SDS011;59961;50.232;8.616;2024-01-11T05:55:32;34.17;;;13.43;;
72087;SDS011;59961;50.232;8.616;2024-01-11T05:57:57;38.88;;;14.60;;
72087;SDS011;59961;50.232;8.616;2024-01-11T06:00:22;38.22;;;15.52;;
72087;SDS011;59961;50.232;8.616;2024-01-11T06:02:48;42.10;;;15.33;;
72087;SDS011;59961;50.232;8.616;2024-01-11T06:05:13;35.05;;;14.15;;
72087;SDS011;59961;50.232;8.616;2024-01-11T06:07:38;35.53;;;14.93;;
72087;SDS011;59961;50.232;8.616;2024-01-11T06:10:04;33.53;;;14.68;;
72087;SDS011;59961;50.232;8.616;2024-01-11T06:12:30;38.17;;;14.55;;
72087;SDS011;59961;50.232;8.616;2024-01-11T06:14:56;38.30;;;14.10;;
72087;SDS011;59961;50.232;8.616;2024-01-11T06:17:21;37.72;;;14.00;;
72087;SDS011;59961;50.232;8.616;2024-01-11T06:19:46;32.58;;;12.93;;
72087;SDS011;59961;50.232;8.616;2024-01-11T06:22:12;35.65;;;13.25;;
72087;SDS011;59961;50.232;8.616;2024-01-11T06:24:37;33.35;;;13.75;;
72087;SDS011;59961;50.232;8.616;2024-01-11T06:27:02;30.23;;;13.45;;
72087;SDS011;59961;50.232;8.616;2024-01-11T06:29:28;39.27;;;13.47;;
72087;SDS011;59961;50.232;8.616;2024-01-11T06:31:53;36.40;;;13.00;;
72087;SDS011;59961;50.232;8.616;2024-01-11T06:34:18;29.27;;;11.95;;
72087;SDS011;59961;50.232;8.616;2024-01-11T06:36:49;28.85;;;12.57;;
72087;SDS011;59961;50.232;8.616;2024-01-11T06:39:15;32.90;;;12.60;;
72087;SDS011;59961;50.232;8.616;2024-01-11T06:41:40;35.83;;;12.47;;
72087;SDS011;59961;50.232;8.616;2024-01-11T06:44:05;30.83;;;12.17;;
72087;SDS011;59961;50.232;8.616;2024-01-11T06:46:31;28.73;;;11.43;;
72087;SDS011;59961;50.232;8.616;2024-01-11T06:48:56;34.13;;;12.30;;
72087;SDS011;59961;50.232;8.616;2024-01-11T06:51:22;30.50;;;11.52;;
72087;SDS011;59961;50.232;8.616;2024-01-11T06:53:48;29.15;;;11.60;;
72087;SDS011;59961;50.232;8.616;2024-01-11T06:56:14;36.67;;;11.77;;
72087;SDS011;59961;50.232;8.616;2024-01-11T06:58:39;31.77;;;13.30;;
72087;SDS011;59961;50.232;8.616;2024-01-11T07:01:04;34.27;;;12.23;;
72087;SDS011;59961;50.232;8.616;2024-01-11T07:03:30;37.70;;;12.45;;
72087;SDS011;59961;50.232;8.616;2024-01-11T07:05:55;34.35;;;11.55;;
72087;SDS011;59961;50.232;8.616;2024-01-11T07:08:23;33.93;;;13.27;;
72087;SDS011;59961;50.232;8.616;2024-01-11T07:10:48;29.97;;;11.83;;
72087;SDS011;59961;50.232;8.616;2024-01-11T07:13:14;28.55;;;12.70;;
72087;SDS011;59961;50.232;8.616;2024-01-11T07:15:41;32.15;;;12.38;;
72087;SDS011;59961;50.232;8.616;2024-01-11T07:18:07;31.10;;;12.77;;
72087;SDS011;59961;50.232;8.616;2024-01-11T07:20:32;31.80;;;11.90;;
72087;SDS011;59961;50.232;8.616;2024-01-11T07:22:57;33.03;;;12.63;;
72087;SDS011;59961;50.232;8.616;2024-01-11T07:25:22;29.60;;;11.85;;
72087;SDS011;59961;50.232;8.616;2024-01-11T07:27:47;33.83;;;12.33;;
72087;SDS011;59961;50.232;8.616;2024-01-11T07:30:13;32.80;;;11.87;;
72087;SDS011;59961;50.232;8.616;2024-01-11T07:32:40;31.27;;;12.48;;
72087;SDS011;59961;50.232;8.616;2024-01-11T07:35:05;31.42;;;12.38;;
72087;SDS011;59961;50.232;8.616;2024-01-11T07:37:31;25.73;;;11.32;;
72087;SDS011;59961;50.232;8.616;2024-01-11T07:39:56;34.07;;;11.97;;
72087;SDS011;59961;50.232;8.616;2024-01-11T07:42:22;28.27;;;12.20;;
72087;SDS011;59961;50.232;8.616;2024-01-11T07:44:47;31.50;;;13.05;;
72087;SDS011;59961;50.232;8.616;2024-01-11T07:47:12;31.42;;;12.45;;
72087;SDS011;59961;50.232;8.616;2024-01-11T07:49:38;22.38;;;9.85;;
72087;SDS011;59961;50.232;8.616;2024-01-11T07:52:05;33.23;;;12.80;;
72087;SDS011;59961;50.232;8.616;2024-01-11T07:54:30;30.35;;;12.20;;
72087;SDS011;59961;50.232;8.616;2024-01-11T07:56:56;30.77;;;12.52;;
72087;SDS011;59961;50.232;8.616;2024-01-11T07:59:22;32.45;;;11.70;;
72087;SDS011;59961;50.232;8.616;2024-01-11T08:01:47;30.53;;;11.77;;
72087;SDS011;59961;50.232;8.616;2024-01-11T08:04:13;35.25;;;11.55;;
72087;SDS011;59961;50.232;8.616;2024-01-11T08:06:38;29.10;;;11.43;;
72087;SDS011;59961;50.232;8.616;2024-01-11T08:09:03;29.83;;;11.20;;
72087;SDS011;59961;50.232;8.616;2024-01-11T08:11:29;29.50;;;11.30;;
72087;SDS011;59961;50.232;8.616;2024-01-11T08:13:54;29.40;;;11.13;;
72087;SDS011;59961;50.232;8.616;2024-01-11T08:16:20;35.40;;;13.10;;
72087;SDS011;59961;50.232;8.616;2024-01-11T08:18:50;30.38;;;12.40;;
72087;SDS011;59961;50.232;8.616;2024-01-11T08:21:15;32.30;;;11.80;;
72087;SDS011;59961;50.232;8.616;2024-01-11T08:23:40;32.67;;;11.83;;
72087;SDS011;59961;50.232;8.616;2024-01-11T08:26:12;35.60;;;12.50;;
72087;SDS011;59961;50.232;8.616;2024-01-11T08:28:38;30.60;;;12.25;;
72087;SDS011;59961;50.232;8.616;2024-01-11T08:31:07;34.63;;;12.32;;
72087;SDS011;59961;50.232;8.616;2024-01-11T08:33:32;31.90;;;12.53;;
72087;SDS011;59961;50.232;8.616;2024-01-11T08:35:57;27.43;;;12.13;;
72087;SDS011;59961;50.232;8.616;2024-01-11T08:38:22;31.17;;;11.70;;
72087;SDS011;59961;50.232;8.616;2024-01-11T08:40:49;28.98;;;12.27;;
72087;SDS011;59961;50.232;8.616;2024-01-11T08:43:14;31.63;;;11.80;;
72087;SDS011;59961;50.232;8.616;2024-01-11T08:45:39;35.17;;;13.33;;
72087;SDS011;59961;50.232;8.616;2024-01-11T08:48:07;39.00;;;11.87;;
72087;SDS011;59961;50.232;8.616;2024-01-11T08:50:32;31.88;;;12.32;;
72087;SDS011;59961;50.232;8.616;2024-01-11T08:52:58;27.77;;;12.05;;
72087;SDS011;59961;50.232;8.616;2024-01-11T08:55:23;33.97;;;13.73;;
72087;SDS011;59961;50.232;8.616;2024-01-11T08:57:48;26.35;;;11.70;;
72087;SDS011;59961;50.232;8.616;2024-01-11T09:00:13;28.58;;;11.95;;
72087;SDS011;59961;50.232;8.616;2024-01-11T09:02:42;34.78;;;12.70;;
72087;SDS011;59961;50.232;8.616;2024-01-11T09:05:07;29.47;;;12.50;;
72087;SDS011;59961;50.232;8.616;2024-01-11T09:07:32;28.83;;;11.20;;
72087;SDS011;59961;50.232;8.616;2024-01-11T09:09:57;33.90;;;13.47;;
72087;SDS011;59961;50.232;8.616;2024-01-11T09:12:23;30.73;;;12.80;;
72087;SDS011;59961;50.232;8.616;2024-01-11T09:14:48;29.90;;;13.25;;
72087;SDS011;59961;50.232;8.616;2024-01-11T09:17:13;35.50;;;13.05;;
72087;SDS011;59961;50.232;8.616;2024-01-11T09:19:38;36.13;;;12.93;;
72087;SDS011;59961;50.232;8.616;2024-01-11T09:22:04;29.60;;;12.30;;
72087;SDS011;59961;50.232;8.616;2024-01-11T09:24:30;32.10;;;13.80;;
72087;SDS011;59961;50.232;8.616;2024-01-11T09:26:55;31.67;;;12.80;;
72087;SDS011;59961;50.232;8.616;2024-01-11T09:29:23;28.60;;;11.90;;
72087;SDS011;59961;50.232;8.616;2024-01-11T09:31:48;37.05;;;13.25;;
72087;SDS011;59961;50.232;8.616;2024-01-11T09:34:13;31.30;;;12.63;;
72087;SDS011;59961;50.232;8.616;2024-01-11T09:36:39;28.90;;;12.02;;
72087;SDS011;59961;50.232;8.616;2024-01-11T09:39:04;31.57;;;12.47;;
72087;SDS011;59961;50.232;8.616;2024-01-11T09:41:34;26.77;;;12.00;;
72087;SDS011;59961;50.232;8.616;2024-01-11T09:44:01;33.13;;;12.18;;
72087;SDS011;59961;50.232;8.616;2024-01-11T09:46:29;33.63;;;12.23;;
72087;SDS011;59961;50.232;8.616;2024-01-11T09:48:55;35.97;;;13.27;;
72087;SDS011;59961;50.232;8.616;2024-01-11T09:51:22;35.38;;;13.05;;
72087;SDS011;59961;50.232;8.616;2024-01-11T09:53:47;31.13;;;12.15;;
72087;SDS011;59961;50.232;8.616;2024-01-11T09:56:15;30.60;;;12.47;;
72087;SDS011;59961;50.232;8.616;2024-01-11T09:58:42;30.92;;;11.68;;
72087;SDS011;59961;50.232;8.616;2024-01-11T10:01:10;31.65;;;12.82;;
72087;SDS011;59961;50.232;8.616;2024-01-11T10:03:38;31.07;;;10.47;;
72087;SDS011;59961;50.232;8.616;2024-01-11T10:06:03;30.77;;;12.02;;
72087;SDS011;59961;50.232;8.616;2024-01-11T10:08:30;26.30;;;11.27;;
72087;SDS011;59961;50.232;8.616;2024-01-11T10:10:56;27.70;;;11.75;;
72087;SDS011;59961;50.232;8.616;2024-01-11T10:13:27;34.97;;;11.73;;
72087;SDS011;59961;50.232;8.616;2024-01-11T10:16:00;33.45;;;12.43;;
72087;SDS011;59961;50.232;8.616;2024-01-11T10:18:30;27.63;;;10.70;;
72087;SDS011;59961;50.232;8.616;2024-01-11T10:20:56;28.73;;;11.23;;
72087;SDS011;59961;50.232;8.616;2024-01-11T10:23:22;29.23;;;10.93;;
72087;SDS011;59961;50.232;8.616;2024-01-11T10:25:47;31.73;;;10.37;;
72087;SDS011;59961;50.232;8.616;2024-01-11T10:28:13;30.17;;;10.83;;
72087;SDS011;59961;50.232;8.616;2024-01-11T10:30:38;29.17;;;11.43;;
72087;SDS011;59961;50.232;8.616;2024-01-11T10:33:05;28.95;;;11.00;;
72087;SDS011;59961;50.232;8.616;2024-01-11T10:35:32;28.80;;;12.25;;
72087;SDS011;59961;50.232;8.616;2024-01-11T10:37:57;28.93;;;11.27;;
72087;SDS011;59961;50.232;8.616;2024-01-11T10:40:23;26.83;;;11.00;;
72087;SDS011;59961;50.232;8.616;2024-01-11T10:42:50;27.65;;;11.63;;
72087;SDS011;59961;50.232;8.616;2024-01-11T10:45:17;27.83;;;11.63;;
72087;SDS011;59961;50.232;8.616;2024-01-11T10:50:11;29.15;;;12.23;;
72087;SDS011;59961;50.232;8.616;2024-01-11T10:52:39;27.10;;;10.93;;
72087;SDS011;59961;50.232;8.616;2024-01-11T10:55:07;29.08;;;12.55;;
72087;SDS011;59961;50.232;8.616;2024-01-11T10:57:33;29.23;;;11.50;;
72087;SDS011;59961;50.232;8.616;2024-01-11T10:59:59;28.60;;;11.43;;
72087;SDS011;59961;50.232;8.616;2024-01-11T11:02:27;28.38;;;11.27;;
72087;SDS011;59961;50.232;8.616;2024-01-11T11:04:53;24.40;;;11.07;;
72087;SDS011;59961;50.232;8.616;2024-01-11T11:07:19;31.48;;;11.38;;
72087;SDS011;59961;50.232;8.616;2024-01-11T11:09:45;30.50;;;12.38;;
72087;SDS011;59961;50.232;8.616;2024-01-11T11:12:11;28.53;;;11.50;;
72087;SDS011;59961;50.232;8.616;2024-01-11T11:14:36;27.13;;;11.00;;
72087;SDS011;59961;50.232;8.616;2024-01-11T11:17:03;24.67;;;11.37;;
72087;SDS011;59961;50.232;8.616;2024-01-11T11:19:29;29.70;;;11.77;;
72087;SDS011;59961;50.232;8.616;2024-01-11T11:21:54;25.70;;;10.68;;
72087;SDS011;59961;50.232;8.616;2024-01-11T11:24:20;26.00;;;10.40;;
72087;SDS011;59961;50.232;8.616;2024-01-11T11:26:45;21.53;;;8.00;;
72087;SDS011;59961;50.232;8.616;2024-01-11T11:29:11;20.23;;;7.67;;
72087;SDS011;59961;50.232;8.616;2024-01-11T11:31:37;16.05;;;6.95;;
72087;SDS011;59961;50.232;8.616;2024-01-11T11:34:06;17.60;;;7.67;;
72087;SDS011;59961;50.232;8.616;2024-01-11T11:36:32;19.95;;;8.02;;
72087;SDS011;59961;50.232;8.616;2024-01-11T11:38:58;21.20;;;7.97;;
72087;SDS011;59961;50.232;8.616;2024-01-11T11:41:26;20.13;;;7.00;;
72087;SDS011;59961;50.232;8.616;2024-01-11T11:43:51;21.67;;;7.83;;
72087;SDS011;59961;50.232;8.616;2024-01-11T11:46:16;17.83;;;7.63;;
72087;SDS011;59961;50.232;8.616;2024-01-11T11:51:07;18.20;;;7.27;;
72087;SDS011;59961;50.232;8.616;2024-01-11T11:53:33;17.83;;;7.37;;
72087;SDS011;59961;50.232;8.616;2024-01-11T11:55:58;19.88;;;7.93;;
72087;SDS011;59961;50.232;8.616;2024-01-11T11:58:24;20.48;;;8.00;;
72087;SDS011;59961;50.232;8.616;2024-01-11T12:00:49;17.70;;;7.18;;
72087;SDS011;59961;50.232;8.616;2024-01-11T12:03:15;20.02;;;7.30;;
72087;SDS011;59961;50.232;8.616;2024-01-11T12:05:42;16.67;;;6.17;;
72087;SDS011;59961;50.232;8.616;2024-01-11T12:08:08;22.85;;;7.80;;
72087;SDS011;59961;50.232;8.616;2024-01-11T12:10:33;17.77;;;6.63;;
72087;SDS011;59961;50.232;8.616;2024-01-11T12:12:58;16.15;;;6.78;;
72087;SDS011;59961;50.232;8.616;2024-01-11T12:15:26;15.35;;;5.30;;
72087;SDS011;59961;50.232;8.616;2024-01-11T12:17:56;13.95;;;6.55;;
72087;SDS011;59961;50.232;8.616;2024-01-11T12:20:22;14.43;;;5.45;;
72087;SDS011;59961;50.232;8.616;2024-01-11T12:22:47;15.40;;;5.87;;
72087;SDS011;59961;50.232;8.616;2024-01-11T12:25:12;14.23;;;6.17;;
72087;SDS011;59961;50.232;8.616;2024-01-11T12:27:37;13.07;;;5.47;;
72087;SDS011;59961;50.232;8.616;2024-01-11T12:30:03;15.27;;;6.10;;
72087;SDS011;59961;50.232;8.616;2024-01-11T12:32:28;18.10;;;6.43;;
72087;SDS011;59961;50.232;8.616;2024-01-11T12:34:55;16.85;;;5.80;;
72087;SDS011;59961;50.232;8.616;2024-01-11T12:37:21;14.23;;;5.53;;
72087;SDS011;59961;50.232;8.616;2024-01-11T12:39:46;14.80;;;5.53;;
72087;SDS011;59961;50.232;8.616;2024-01-11T12:42:12;12.40;;;4.82;;
72087;SDS011;59961;50.232;8.616;2024-01-11T12:44:37;10.27;;;4.63;;
72087;SDS011;59961;50.232;8.616;2024-01-11T12:47:04;14.05;;;5.82;;
72087;SDS011;59961;50.232;8.616;2024-01-11T12:49:30;11.57;;;5.30;;
72087;SDS011;59961;50.232;8.616;2024-01-11T12:51:55;11.45;;;4.60;;
72087;SDS011;59961;50.232;8.616;2024-01-11T12:54:20;15.33;;;5.10;;
72087;SDS011;59961;50.232;8.616;2024-01-11T12:56:46;12.70;;;4.72;;
72087;SDS011;59961;50.232;8.616;2024-01-11T12:59:11;12.33;;;4.77;;
72087;SDS011;59961;50.232;8.616;2024-01-11T13:01:40;14.13;;;5.37;;
72087;SDS011;59961;50.232;8.616;2024-01-11T13:04:07;13.68;;;5.43;;
72087;SDS011;59961;50.232;8.616;2024-01-11T13:06:32;12.98;;;4.50;;
72087;SDS011;59961;50.232;8.616;2024-01-11T13:08:59;14.07;;;4.67;;
72087;SDS011;59961;50.232;8.616;2024-01-11T13:11:24;13.77;;;5.40;;
72087;SDS011;59961;50.232;8.616;2024-01-11T13:13:50;12.40;;;4.95;;
72087;SDS011;59961;50.232;8.616;2024-01-11T13:16:18;13.27;;;5.23;;
72087;SDS011;59961;50.232;8.616;2024-01-11T13:18:45;13.20;;;5.18;;
72087;SDS011;59961;50.232;8.616;2024-01-11T13:21:10;11.07;;;4.27;;
72087;SDS011;59961;50.232;8.616;2024-01-11T13:23:37;9.52;;;3.70;;
72087;SDS011;59961;50.232;8.616;2024-01-11T13:26:03;11.05;;;3.92;;
72087;SDS011;59961;50.232;8.616;2024-01-11T13:28:29;10.20;;;3.80;;
72087;SDS011;59961;50.232;8.616;2024-01-11T13:30:54;11.77;;;4.03;;
72087;SDS011;59961;50.232;8.616;2024-01-11T13:33:20;10.67;;;4.60;;
72087;SDS011;59961;50.232;8.616;2024-01-11T13:35:47;9.20;;;3.60;;
72087;SDS011;59961;50.232;8.616;2024-01-11T13:38:13;10.70;;;3.77;;
72087;SDS011;59961;50.232;8.616;2024-01-11T13:40:38;10.47;;;4.83;;
72087;SDS011;59961;50.232;8.616;2024-01-11T13:43:05;8.75;;;3.42;;
72087;SDS011;59961;50.232;8.616;2024-01-11T13:45:30;10.57;;;3.87;;
72087;SDS011;59961;50.232;8.616;2024-01-11T13:47:55;12.60;;;6.03;;
72087;SDS011;59961;50.232;8.616;2024-01-11T13:50:21;14.55;;;5.85;;
72087;SDS011;59961;50.232;8.616;2024-01-11T13:52:46;12.37;;;5.60;;
72087;SDS011;59961;50.232;8.616;2024-01-11T13:55:12;12.98;;;4.82;;
72087;SDS011;59961;50.232;8.616;2024-01-11T13:57:37;9.47;;;3.67;;
72087;SDS011;59961;50.232;8.616;2024-01-11T14:00:03;9.13;;;3.30;;
72087;SDS011;59961;50.232;8.616;2024-01-11T14:02:28;8.13;;;3.20;;
72087;SDS011;59961;50.232;8.616;2024-01-11T14:04:53;8.50;;;2.80;;
72087;SDS011;59961;50.232;8.616;2024-01-11T14:07:19;7.27;;;3.13;;
72087;SDS011;59961;50.232;8.616;2024-01-11T14:09:44;9.13;;;3.17;;
72087;SDS011;59961;50.232;8.616;2024-01-11T14:12:09;8.30;;;2.75;;
72087;SDS011;59961;50.232;8.616;2024-01-11T14:14:35;7.47;;;2.95;;
72087;SDS011;59961;50.232;8.616;2024-01-11T14:17:00;6.80;;;2.47;;
72087;SDS011;59961;50.232;8.616;2024-01-11T14:19:25;5.82;;;2.35;;
72087;SDS011;59961;50.232;8.616;2024-01-11T14:21:50;7.63;;;2.93;;
72087;SDS011;59961;50.232;8.616;2024-01-11T14:24:16;5.87;;;2.73;;